sensor_id;sensor_type;location;lat;lon;timestamp;P1;durP1;ratioP1;P2;durP2;ratioP2
12302;SDS011;6214;48.012;7.862;2022-07-29T00:02:24;4.65;;;2.80;;
12302;SDS011;6214;48.012;7.862;2022-07-29T00:04:51;5.40;;;3.25;;
12302;SDS011;6214;48.012;7.862;2022-07-29T00:07:18;5.00;;;3.20;;
12302;SDS011;6214;48.012;7.862;2022-07-29T00:09:46;5.90;;;3.30;;
12302;SDS011;6214;48.012;7.862;2022-07-29T00:12:17;4.50;;;3.03;;
12302;SDS011;6214;48.012;7.862;2022-07-29T00:14:52;5.47;;;3.20;;
12302;SDS011;6214;48.012;7.862;2022-07-29T00:17:20;6.10;;;3.30;;
12302;SDS011;6214;48.012;7.862;2022-07-29T00:19:47;5.25;;;3.50;;
12302;SDS011;6214;48.012;7.862;2022-07-29T00:22:14;5.60;;;3.40;;
12302;SDS011;6214;48.012;7.862;2022-07-29T00:24:41;7.30;;;3.40;;
12302;SDS011;6214;48.012;7.862;2022-07-29T00:27:08;5.38;;;3.17;;
12302;SDS011;6214;48.012;7.862;2022-07-29T00:29:35;5.20;;;3.40;;
12302;SDS011;6214;48.012;7.862;2022-07-29T00:32:02;5.90;;;3.58;;
12302;SDS011;6214;48.012;7.862;2022-07-29T00:34:29;5.82;;;3.40;;
12302;SDS011;6214;48.012;7.862;2022-07-29T00:37:15;5.90;;;3.23;;
12302;SDS011;6214;48.012;7.862;2022-07-29T00:39:42;5.05;;;3.00;;
12302;SDS011;6214;48.012;7.862;2022-07-29T00:42:09;5.25;;;3.50;;
12302;SDS011;6214;48.012;7.862;2022-07-29T00:44:37;5.40;;;3.50;;
12302;SDS011;6214;48.012;7.862;2022-07-29T00:47:04;5.00;;;2.85;;
12302;SDS011;6214;48.012;7.862;2022-07-29T00:49:32;6.35;;;3.30;;
12302;SDS011;6214;48.012;7.862;2022-07-29T00:52:01;5.63;;;3.60;;
12302;SDS011;6214;48.012;7.862;2022-07-29T00:54:29;5.60;;;3.40;;
12302;SDS011;6214;48.012;7.862;2022-07-29T00:56:59;5.00;;;3.60;;
12302;SDS011;6214;48.012;7.862;2022-07-29T00:59:27;5.20;;;3.33;;
12302;SDS011;6214;48.012;7.862;2022-07-29T01:02:00;5.75;;;3.30;;
12302;SDS011;6214;48.012;7.862;2022-07-29T01:04:30;6.00;;;3.42;;
12302;SDS011;6214;48.012;7.862;2022-07-29T01:06:58;5.00;;;3.20;;
12302;SDS011;6214;48.012;7.862;2022-07-29T01:09:27;5.55;;;3.40;;
12302;SDS011;6214;48.012;7.862;2022-07-29T01:12:15;5.50;;;3.40;;
12302;SDS011;6214;48.012;7.862;2022-07-29T01:14:44;5.80;;;3.35;;
12302;SDS011;6214;48.012;7.862;2022-07-29T01:17:20;5.75;;;3.40;;
12302;SDS011;6214;48.012;7.862;2022-07-29T01:30:27;6.00;;;3.70;;
12302;SDS011;6214;48.012;7.862;2022-07-29T01:32:58;5.63;;;3.30;;
12302;SDS011;6214;48.012;7.862;2022-07-29T01:35:31;6.32;;;3.40;;
12302;SDS011;6214;48.012;7.862;2022-07-29T01:38:17;6.00;;;3.47;;
12302;SDS011;6214;48.012;7.862;2022-07-29T01:40:51;4.70;;;3.10;;
12302;SDS011;6214;48.012;7.862;2022-07-29T01:43:25;6.00;;;3.60;;
12302;SDS011;6214;48.012;7.862;2022-07-29T01:46:01;5.95;;;3.70;;
12302;SDS011;6214;48.012;7.862;2022-07-29T01:48:37;5.40;;;3.53;;
12302;SDS011;6214;48.012;7.862;2022-07-29T01:54:01;6.83;;;3.50;;
12302;SDS011;6214;48.012;7.862;2022-07-29T01:56:32;5.28;;;3.28;;
12302;SDS011;6214;48.012;7.862;2022-07-29T01:59:02;4.80;;;3.00;;
12302;SDS011;6214;48.012;7.862;2022-07-29T02:01:32;6.30;;;3.70;;
12302;SDS011;6214;48.012;7.862;2022-07-29T02:04:05;6.40;;;3.60;;
12302;SDS011;6214;48.012;7.862;2022-07-29T02:06:37;5.13;;;3.20;;
12302;SDS011;6214;48.012;7.862;2022-07-29T02:09:05;5.30;;;3.47;;
12302;SDS011;6214;48.012;7.862;2022-07-29T02:11:33;7.28;;;3.85;;
12302;SDS011;6214;48.012;7.862;2022-07-29T02:14:02;5.30;;;3.30;;
12302;SDS011;6214;48.012;7.862;2022-07-29T02:16:31;6.00;;;3.60;;
12302;SDS011;6214;48.012;7.862;2022-07-29T02:19:01;5.20;;;3.40;;
12302;SDS011;6214;48.012;7.862;2022-07-29T02:21:29;5.70;;;3.55;;
12302;SDS011;6214;48.012;7.862;2022-07-29T02:23:59;6.30;;;3.50;;
12302;SDS011;6214;48.012;7.862;2022-07-29T02:26:28;5.30;;;3.60;;
12302;SDS011;6214;48.012;7.862;2022-07-29T02:28:57;5.90;;;3.30;;
12302;SDS011;6214;48.012;7.862;2022-07-29T02:31:26;5.70;;;3.50;;
12302;SDS011;6214;48.012;7.862;2022-07-29T02:33:56;5.47;;;3.50;;
12302;SDS011;6214;48.012;7.862;2022-07-29T02:36:23;6.30;;;3.90;;
12302;SDS011;6214;48.012;7.862;2022-07-29T02:38:52;6.70;;;3.40;;
12302;SDS011;6214;48.012;7.862;2022-07-29T02:41:25;5.53;;;3.30;;
12302;SDS011;6214;48.012;7.862;2022-07-29T02:44:02;6.13;;;3.50;;
12302;SDS011;6214;48.012;7.862;2022-07-29T02:46:33;5.63;;;3.50;;
12302;SDS011;6214;48.012;7.862;2022-07-29T02:51:54;6.00;;;3.60;;
12302;SDS011;6214;48.012;7.862;2022-07-29T02:54:37;5.40;;;3.60;;
12302;SDS011;6214;48.012;7.862;2022-07-29T02:57:20;5.80;;;3.60;;
12302;SDS011;6214;48.012;7.862;2022-07-29T02:59:57;5.72;;;3.50;;
12302;SDS011;6214;48.012;7.862;2022-07-29T03:02:29;5.00;;;3.38;;
12302;SDS011;6214;48.012;7.862;2022-07-29T03:05:03;7.03;;;3.70;;
12302;SDS011;6214;48.012;7.862;2022-07-29T03:07:34;5.10;;;3.40;;
12302;SDS011;6214;48.012;7.862;2022-07-29T03:10:02;5.80;;;3.57;;
12302;SDS011;6214;48.012;7.862;2022-07-29T03:12:36;6.43;;;3.40;;
12302;SDS011;6214;48.012;7.862;2022-07-29T03:15:03;6.03;;;3.40;;
12302;SDS011;6214;48.012;7.862;2022-07-29T03:17:32;5.30;;;3.55;;
12302;SDS011;6214;48.012;7.862;2022-07-29T03:20:00;5.80;;;3.50;;
12302;SDS011;6214;48.012;7.862;2022-07-29T03:22:27;5.90;;;3.50;;
12302;SDS011;6214;48.012;7.862;2022-07-29T03:24:54;5.20;;;3.40;;
12302;SDS011;6214;48.012;7.862;2022-07-29T03:27:21;5.80;;;3.40;;
12302;SDS011;6214;48.012;7.862;2022-07-29T03:29:48;5.60;;;3.40;;
12302;SDS011;6214;48.012;7.862;2022-07-29T03:32:16;5.70;;;3.58;;
12302;SDS011;6214;48.012;7.862;2022-07-29T03:34:50;5.07;;;3.40;;
12302;SDS011;6214;48.012;7.862;2022-07-29T03:37:17;6.10;;;3.58;;
12302;SDS011;6214;48.012;7.862;2022-07-29T03:39:44;5.30;;;3.60;;
12302;SDS011;6214;48.012;7.862;2022-07-29T03:42:13;6.45;;;3.70;;
12302;SDS011;6214;48.012;7.862;2022-07-29T03:44:43;6.90;;;3.88;;
12302;SDS011;6214;48.012;7.862;2022-07-29T03:47:12;5.70;;;3.50;;
12302;SDS011;6214;48.012;7.862;2022-07-29T03:49:41;5.93;;;3.20;;
12302;SDS011;6214;48.012;7.862;2022-07-29T03:52:10;7.30;;;3.45;;
12302;SDS011;6214;48.012;7.862;2022-07-29T03:54:37;5.97;;;3.30;;
12302;SDS011;6214;48.012;7.862;2022-07-29T03:57:04;6.97;;;3.40;;
12302;SDS011;6214;48.012;7.862;2022-07-29T03:59:33;5.65;;;3.70;;
12302;SDS011;6214;48.012;7.862;2022-07-29T04:02:00;7.15;;;3.63;;
12302;SDS011;6214;48.012;7.862;2022-07-29T04:04:31;5.47;;;3.20;;
12302;SDS011;6214;48.012;7.862;2022-07-29T04:07:00;6.70;;;3.70;;
12302;SDS011;6214;48.012;7.862;2022-07-29T04:09:27;5.20;;;3.40;;
12302;SDS011;6214;48.012;7.862;2022-07-29T04:11:54;6.20;;;3.33;;
12302;SDS011;6214;48.012;7.862;2022-07-29T04:14:29;5.70;;;3.10;;
12302;SDS011;6214;48.012;7.862;2022-07-29T04:16:57;5.32;;;3.20;;
12302;SDS011;6214;48.012;7.862;2022-07-29T04:19:24;5.95;;;3.30;;
12302;SDS011;6214;48.012;7.862;2022-07-29T04:21:51;5.95;;;3.40;;
12302;SDS011;6214;48.012;7.862;2022-07-29T04:24:18;6.07;;;3.22;;
12302;SDS011;6214;48.012;7.862;2022-07-29T04:26:46;5.10;;;3.10;;
12302;SDS011;6214;48.012;7.862;2022-07-29T04:29:14;5.80;;;3.30;;
12302;SDS011;6214;48.012;7.862;2022-07-29T04:31:41;5.23;;;3.20;;
12302;SDS011;6214;48.012;7.862;2022-07-29T04:34:09;7.05;;;3.45;;
12302;SDS011;6214;48.012;7.862;2022-07-29T04:36:38;4.93;;;3.10;;
12302;SDS011;6214;48.012;7.862;2022-07-29T04:39:05;6.57;;;3.08;;
12302;SDS011;6214;48.012;7.862;2022-07-29T04:41:32;7.25;;;3.60;;
12302;SDS011;6214;48.012;7.862;2022-07-29T04:43:59;5.00;;;3.30;;
12302;SDS011;6214;48.012;7.862;2022-07-29T04:46:32;5.13;;;3.00;;
12302;SDS011;6214;48.012;7.862;2022-07-29T04:48:59;5.38;;;3.05;;
12302;SDS011;6214;48.012;7.862;2022-07-29T04:51:27;5.03;;;3.20;;
12302;SDS011;6214;48.012;7.862;2022-07-29T04:53:53;5.72;;;3.67;;
12302;SDS011;6214;48.012;7.862;2022-07-29T04:56:20;5.28;;;3.25;;
12302;SDS011;6214;48.012;7.862;2022-07-29T04:58:47;6.30;;;3.63;;
12302;SDS011;6214;48.012;7.862;2022-07-29T05:01:14;5.80;;;3.50;;
12302;SDS011;6214;48.012;7.862;2022-07-29T05:03:41;5.32;;;3.17;;
12302;SDS011;6214;48.012;7.862;2022-07-29T05:06:08;5.05;;;3.05;;
12302;SDS011;6214;48.012;7.862;2022-07-29T05:08:35;5.90;;;2.90;;
12302;SDS011;6214;48.012;7.862;2022-07-29T05:11:02;5.40;;;3.25;;
12302;SDS011;6214;48.012;7.862;2022-07-29T05:13:38;6.90;;;3.10;;
12302;SDS011;6214;48.012;7.862;2022-07-29T05:16:11;5.53;;;3.20;;
12302;SDS011;6214;48.012;7.862;2022-07-29T05:18:39;5.00;;;3.22;;
12302;SDS011;6214;48.012;7.862;2022-07-29T05:21:06;5.50;;;3.40;;
12302;SDS011;6214;48.012;7.862;2022-07-29T05:23:33;5.38;;;2.92;;
12302;SDS011;6214;48.012;7.862;2022-07-29T05:26:00;5.27;;;3.20;;
12302;SDS011;6214;48.012;7.862;2022-07-29T05:28:28;6.20;;;3.67;;
12302;SDS011;6214;48.012;7.862;2022-07-29T05:30:59;5.30;;;3.20;;
12302;SDS011;6214;48.012;7.862;2022-07-29T05:33:26;5.78;;;3.55;;
12302;SDS011;6214;48.012;7.862;2022-07-29T05:36:02;5.55;;;3.33;;
12302;SDS011;6214;48.012;7.862;2022-07-29T05:38:36;6.20;;;3.45;;
12302;SDS011;6214;48.012;7.862;2022-07-29T05:41:04;5.30;;;3.50;;
12302;SDS011;6214;48.012;7.862;2022-07-29T05:43:34;5.80;;;3.33;;
12302;SDS011;6214;48.012;7.862;2022-07-29T05:46:15;6.57;;;3.70;;
12302;SDS011;6214;48.012;7.862;2022-07-29T05:48:43;6.40;;;3.30;;
12302;SDS011;6214;48.012;7.862;2022-07-29T05:51:10;5.72;;;3.70;;
12302;SDS011;6214;48.012;7.862;2022-07-29T05:53:37;6.35;;;3.65;;
12302;SDS011;6214;48.012;7.862;2022-07-29T05:56:04;5.50;;;3.27;;
12302;SDS011;6214;48.012;7.862;2022-07-29T05:58:32;5.80;;;3.70;;
12302;SDS011;6214;48.012;7.862;2022-07-29T06:00:59;5.00;;;3.30;;
12302;SDS011;6214;48.012;7.862;2022-07-29T06:03:26;5.50;;;3.13;;
12302;SDS011;6214;48.012;7.862;2022-07-29T06:05:54;7.07;;;3.50;;
12302;SDS011;6214;48.012;7.862;2022-07-29T06:08:21;6.00;;;3.22;;
12302;SDS011;6214;48.012;7.862;2022-07-29T06:10:47;6.10;;;3.47;;
12302;SDS011;6214;48.012;7.862;2022-07-29T06:13:14;6.03;;;3.60;;
12302;SDS011;6214;48.012;7.862;2022-07-29T06:15:42;7.27;;;3.77;;
12302;SDS011;6214;48.012;7.862;2022-07-29T06:18:11;5.25;;;3.20;;
12302;SDS011;6214;48.012;7.862;2022-07-29T06:20:39;6.30;;;3.63;;
12302;SDS011;6214;48.012;7.862;2022-07-29T06:23:06;5.78;;;3.70;;
12302;SDS011;6214;48.012;7.862;2022-07-29T06:25:33;5.53;;;3.50;;
12302;SDS011;6214;48.012;7.862;2022-07-29T06:28:03;6.40;;;3.65;;
12302;SDS011;6214;48.012;7.862;2022-07-29T06:30:31;6.60;;;3.20;;
12302;SDS011;6214;48.012;7.862;2022-07-29T06:32:57;8.15;;;3.30;;
12302;SDS011;6214;48.012;7.862;2022-07-29T06:35:24;7.00;;;3.80;;
12302;SDS011;6214;48.012;7.862;2022-07-29T06:38:07;6.60;;;3.45;;
12302;SDS011;6214;48.012;7.862;2022-07-29T06:40:54;6.20;;;3.40;;
12302;SDS011;6214;48.012;7.862;2022-07-29T06:46:00;8.00;;;4.40;;
12302;SDS011;6214;48.012;7.862;2022-07-29T06:48:29;7.40;;;4.20;;
12302;SDS011;6214;48.012;7.862;2022-07-29T06:50:57;7.70;;;4.50;;
12302;SDS011;6214;48.012;7.862;2022-07-29T06:53:24;9.05;;;4.70;;
12302;SDS011;6214;48.012;7.862;2022-07-29T06:55:51;7.70;;;4.30;;
12302;SDS011;6214;48.012;7.862;2022-07-29T06:58:18;9.02;;;4.50;;
12302;SDS011;6214;48.012;7.862;2022-07-29T07:00:46;6.43;;;4.07;;
12302;SDS011;6214;48.012;7.862;2022-07-29T07:03:14;7.47;;;4.20;;
12302;SDS011;6214;48.012;7.862;2022-07-29T07:05:42;7.97;;;3.42;;
12302;SDS011;6214;48.012;7.862;2022-07-29T07:08:10;6.32;;;3.42;;
12302;SDS011;6214;48.012;7.862;2022-07-29T07:10:37;7.38;;;3.80;;
12302;SDS011;6214;48.012;7.862;2022-07-29T07:13:04;6.13;;;3.72;;
12302;SDS011;6214;48.012;7.862;2022-07-29T07:15:32;6.87;;;3.70;;
12302;SDS011;6214;48.012;7.862;2022-07-29T07:18:05;6.93;;;3.70;;
12302;SDS011;6214;48.012;7.862;2022-07-29T07:20:33;5.97;;;3.55;;
12302;SDS011;6214;48.012;7.862;2022-07-29T07:23:01;7.40;;;3.83;;
12302;SDS011;6214;48.012;7.862;2022-07-29T07:25:27;6.07;;;3.85;;
12302;SDS011;6214;48.012;7.862;2022-07-29T07:27:55;7.72;;;4.00;;
12302;SDS011;6214;48.012;7.862;2022-07-29T07:30:22;5.93;;;3.60;;
12302;SDS011;6214;48.012;7.862;2022-07-29T07:32:49;6.45;;;3.80;;
12302;SDS011;6214;48.012;7.862;2022-07-29T07:35:16;7.85;;;3.80;;
12302;SDS011;6214;48.012;7.862;2022-07-29T07:37:43;6.97;;;3.80;;
12302;SDS011;6214;48.012;7.862;2022-07-29T07:40:10;8.10;;;3.90;;
12302;SDS011;6214;48.012;7.862;2022-07-29T07:42:44;6.50;;;3.60;;
12302;SDS011;6214;48.012;7.862;2022-07-29T07:45:11;8.20;;;3.40;;
12302;SDS011;6214;48.012;7.862;2022-07-29T07:47:41;6.43;;;3.87;;
12302;SDS011;6214;48.012;7.862;2022-07-29T07:50:09;7.43;;;3.57;;
12302;SDS011;6214;48.012;7.862;2022-07-29T07:52:50;7.57;;;4.07;;
12302;SDS011;6214;48.012;7.862;2022-07-29T07:55:19;6.37;;;3.83;;
12302;SDS011;6214;48.012;7.862;2022-07-29T07:57:46;6.75;;;3.70;;
12302;SDS011;6214;48.012;7.862;2022-07-29T08:00:14;6.88;;;3.83;;
12302;SDS011;6214;48.012;7.862;2022-07-29T08:02:42;6.50;;;3.70;;
12302;SDS011;6214;48.012;7.862;2022-07-29T08:05:11;6.40;;;3.80;;
12302;SDS011;6214;48.012;7.862;2022-07-29T08:07:43;5.93;;;3.80;;
12302;SDS011;6214;48.012;7.862;2022-07-29T08:10:12;6.38;;;3.25;;
12302;SDS011;6214;48.012;7.862;2022-07-29T08:12:41;6.60;;;3.58;;
12302;SDS011;6214;48.012;7.862;2022-07-29T08:15:08;6.22;;;3.50;;
12302;SDS011;6214;48.012;7.862;2022-07-29T08:17:35;5.40;;;3.43;;
12302;SDS011;6214;48.012;7.862;2022-07-29T08:20:02;5.85;;;3.78;;
12302;SDS011;6214;48.012;7.862;2022-07-29T08:22:29;6.20;;;3.60;;
12302;SDS011;6214;48.012;7.862;2022-07-29T08:24:56;6.20;;;3.45;;
12302;SDS011;6214;48.012;7.862;2022-07-29T08:27:23;7.10;;;3.28;;
12302;SDS011;6214;48.012;7.862;2022-07-29T08:30:08;6.65;;;3.70;;
12302;SDS011;6214;48.012;7.862;2022-07-29T08:32:36;6.60;;;3.70;;
12302;SDS011;6214;48.012;7.862;2022-07-29T08:35:21;7.50;;;3.70;;
12302;SDS011;6214;48.012;7.862;2022-07-29T08:37:49;6.10;;;3.90;;
12302;SDS011;6214;48.012;7.862;2022-07-29T08:40:17;7.13;;;3.30;;
12302;SDS011;6214;48.012;7.862;2022-07-29T08:42:44;6.45;;;3.35;;
12302;SDS011;6214;48.012;7.862;2022-07-29T08:45:11;6.60;;;3.20;;
12302;SDS011;6214;48.012;7.862;2022-07-29T08:47:38;7.30;;;3.30;;
12302;SDS011;6214;48.012;7.862;2022-07-29T08:50:06;6.43;;;3.30;;
12302;SDS011;6214;48.012;7.862;2022-07-29T08:52:35;6.05;;;3.38;;
12302;SDS011;6214;48.012;7.862;2022-07-29T08:55:05;7.10;;;3.40;;
12302;SDS011;6214;48.012;7.862;2022-07-29T08:57:34;9.05;;;3.75;;
12302;SDS011;6214;48.012;7.862;2022-07-29T09:00:05;7.82;;;3.53;;
12302;SDS011;6214;48.012;7.862;2022-07-29T09:02:41;6.78;;;3.67;;
12302;SDS011;6214;48.012;7.862;2022-07-29T09:05:13;7.03;;;3.47;;
12302;SDS011;6214;48.012;7.862;2022-07-29T09:07:41;6.93;;;3.00;;
12302;SDS011;6214;48.012;7.862;2022-07-29T09:10:10;5.82;;;3.38;;
12302;SDS011;6214;48.012;7.862;2022-07-29T09:12:37;6.70;;;3.80;;
12302;SDS011;6214;48.012;7.862;2022-07-29T09:15:04;5.47;;;3.10;;
12302;SDS011;6214;48.012;7.862;2022-07-29T09:20:19;5.68;;;2.78;;
12302;SDS011;6214;48.012;7.862;2022-07-29T09:22:48;5.82;;;3.08;;
12302;SDS011;6214;48.012;7.862;2022-07-29T09:25:34;5.95;;;3.20;;
12302;SDS011;6214;48.012;7.862;2022-07-29T09:28:09;6.90;;;2.90;;
12302;SDS011;6214;48.012;7.862;2022-07-29T09:30:53;7.30;;;3.10;;
12302;SDS011;6214;48.012;7.862;2022-07-29T09:33:22;7.45;;;2.80;;
12302;SDS011;6214;48.012;7.862;2022-07-29T09:35:59;4.70;;;2.40;;
12302;SDS011;6214;48.012;7.862;2022-07-29T09:38:31;5.70;;;3.10;;
12302;SDS011;6214;48.012;7.862;2022-07-29T09:41:00;5.32;;;2.90;;
12302;SDS011;6214;48.012;7.862;2022-07-29T09:43:31;5.43;;;2.78;;
12302;SDS011;6214;48.012;7.862;2022-07-29T09:46:17;5.72;;;2.80;;
12302;SDS011;6214;48.012;7.862;2022-07-29T09:48:44;6.00;;;2.90;;
12302;SDS011;6214;48.012;7.862;2022-07-29T09:51:18;5.70;;;2.70;;
12302;SDS011;6214;48.012;7.862;2022-07-29T09:53:53;7.25;;;2.70;;
12302;SDS011;6214;48.012;7.862;2022-07-29T09:56:23;6.88;;;2.90;;
12302;SDS011;6214;48.012;7.862;2022-07-29T09:59:08;5.38;;;2.70;;
12302;SDS011;6214;48.012;7.862;2022-07-29T10:01:37;5.68;;;2.90;;
12302;SDS011;6214;48.012;7.862;2022-07-29T10:04:04;7.43;;;2.72;;
12302;SDS011;6214;48.012;7.862;2022-07-29T10:06:31;6.05;;;2.72;;
12302;SDS011;6214;48.012;7.862;2022-07-29T10:09:10;6.78;;;2.75;;
12302;SDS011;6214;48.012;7.862;2022-07-29T10:11:38;5.80;;;2.80;;
12302;SDS011;6214;48.012;7.862;2022-07-29T10:14:15;6.65;;;2.50;;
12302;SDS011;6214;48.012;7.862;2022-07-29T10:16:43;7.05;;;2.85;;
12302;SDS011;6214;48.012;7.862;2022-07-29T10:19:10;5.68;;;2.50;;
12302;SDS011;6214;48.012;7.862;2022-07-29T10:21:37;6.70;;;2.63;;
12302;SDS011;6214;48.012;7.862;2022-07-29T10:24:06;5.95;;;2.80;;
12302;SDS011;6214;48.012;7.862;2022-07-29T10:26:40;6.20;;;2.65;;
12302;SDS011;6214;48.012;7.862;2022-07-29T10:29:08;5.43;;;2.90;;
12302;SDS011;6214;48.012;7.862;2022-07-29T10:31:44;6.18;;;2.50;;
12302;SDS011;6214;48.012;7.862;2022-07-29T10:34:23;6.60;;;2.80;;
12302;SDS011;6214;48.012;7.862;2022-07-29T10:37:23;4.80;;;2.50;;
12302;SDS011;6214;48.012;7.862;2022-07-29T10:43:26;5.45;;;2.50;;
12302;SDS011;6214;48.012;7.862;2022-07-29T10:46:03;6.03;;;3.20;;
12302;SDS011;6214;48.012;7.862;2022-07-29T10:48:34;6.90;;;2.70;;
12302;SDS011;6214;48.012;7.862;2022-07-29T10:51:05;5.20;;;2.83;;
12302;SDS011;6214;48.012;7.862;2022-07-29T10:53:45;6.93;;;3.00;;
12302;SDS011;6214;48.012;7.862;2022-07-29T10:56:27;5.13;;;2.70;;
12302;SDS011;6214;48.012;7.862;2022-07-29T11:01:48;5.07;;;2.80;;
12302;SDS011;6214;48.012;7.862;2022-07-29T11:07:09;9.80;;;5.10;;
12302;SDS011;6214;48.012;7.862;2022-07-29T11:09:37;6.13;;;2.85;;
12302;SDS011;6214;48.012;7.862;2022-07-29T11:15:05;6.30;;;2.95;;
12302;SDS011;6214;48.012;7.862;2022-07-29T11:26:23;4.97;;;2.78;;
12302;SDS011;6214;48.012;7.862;2022-07-29T11:34:17;6.03;;;2.90;;
12302;SDS011;6214;48.012;7.862;2022-07-29T11:39:34;6.30;;;3.20;;
12302;SDS011;6214;48.012;7.862;2022-07-29T11:45:00;7.05;;;2.80;;
12302;SDS011;6214;48.012;7.862;2022-07-29T11:47:53;7.03;;;3.08;;
12302;SDS011;6214;48.012;7.862;2022-07-29T11:50:35;8.05;;;2.97;;
12302;SDS011;6214;48.012;7.862;2022-07-29T11:53:10;7.60;;;3.03;;
12302;SDS011;6214;48.012;7.862;2022-07-29T11:55:40;7.50;;;3.10;;
12302;SDS011;6214;48.012;7.862;2022-07-29T11:58:21;5.93;;;2.80;;
12302;SDS011;6214;48.012;7.862;2022-07-29T12:00:50;4.60;;;2.53;;
12302;SDS011;6214;48.012;7.862;2022-07-29T12:03:23;7.28;;;2.70;;
12302;SDS011;6214;48.012;7.862;2022-07-29T12:06:02;6.30;;;3.17;;
12302;SDS011;6214;48.012;7.862;2022-07-29T12:08:38;6.00;;;3.00;;
12302;SDS011;6214;48.012;7.862;2022-07-29T12:11:14;7.30;;;3.40;;
12302;SDS011;6214;48.012;7.862;2022-07-29T12:13:45;5.70;;;3.00;;
12302;SDS011;6214;48.012;7.862;2022-07-29T12:16:14;5.60;;;2.70;;
12302;SDS011;6214;48.012;7.862;2022-07-29T12:18:58;5.90;;;3.00;;
12302;SDS011;6214;48.012;7.862;2022-07-29T12:21:28;5.47;;;2.70;;
12302;SDS011;6214;48.012;7.862;2022-07-29T12:24:22;7.73;;;3.40;;
12302;SDS011;6214;48.012;7.862;2022-07-29T12:26:53;5.15;;;2.80;;
12302;SDS011;6214;48.012;7.862;2022-07-29T12:29:22;5.03;;;2.92;;
12302;SDS011;6214;48.012;7.862;2022-07-29T12:31:59;5.80;;;3.00;;
12302;SDS011;6214;48.012;7.862;2022-07-29T12:34:27;6.15;;;3.05;;
12302;SDS011;6214;48.012;7.862;2022-07-29T12:36:55;5.63;;;3.10;;
12302;SDS011;6214;48.012;7.862;2022-07-29T12:39:22;5.82;;;3.10;;
12302;SDS011;6214;48.012;7.862;2022-07-29T12:41:52;6.50;;;3.10;;
12302;SDS011;6214;48.012;7.862;2022-07-29T12:44:54;6.20;;;2.85;;
12302;SDS011;6214;48.012;7.862;2022-07-29T12:47:18;5.90;;;3.00;;
12302;SDS011;6214;48.012;7.862;2022-07-29T12:49:46;6.00;;;2.90;;
12302;SDS011;6214;48.012;7.862;2022-07-29T12:52:24;6.57;;;2.78;;
12302;SDS011;6214;48.012;7.862;2022-07-29T12:54:58;6.20;;;2.90;;
12302;SDS011;6214;48.012;7.862;2022-07-29T12:57:25;5.70;;;3.00;;
12302;SDS011;6214;48.012;7.862;2022-07-29T13:00:06;5.93;;;3.10;;
12302;SDS011;6214;48.012;7.862;2022-07-29T13:02:37;5.90;;;3.00;;
12302;SDS011;6214;48.012;7.862;2022-07-29T13:05:05;5.40;;;3.05;;
12302;SDS011;6214;48.012;7.862;2022-07-29T13:07:35;5.32;;;2.50;;
12302;SDS011;6214;48.012;7.862;2022-07-29T13:10:21;5.35;;;2.72;;
12302;SDS011;6214;48.012;7.862;2022-07-29T13:15:29;7.00;;;2.40;;
12302;SDS011;6214;48.012;7.862;2022-07-29T13:17:56;5.60;;;2.50;;
12302;SDS011;6214;48.012;7.862;2022-07-29T13:20:24;4.75;;;2.40;;
12302;SDS011;6214;48.012;7.862;2022-07-29T13:22:56;5.38;;;2.70;;
12302;SDS011;6214;48.012;7.862;2022-07-29T13:25:26;4.60;;;2.30;;
12302;SDS011;6214;48.012;7.862;2022-07-29T13:27:58;4.90;;;2.30;;
12302;SDS011;6214;48.012;7.862;2022-07-29T13:30:25;6.90;;;2.42;;
12302;SDS011;6214;48.012;7.862;2022-07-29T13:32:52;6.38;;;2.70;;
12302;SDS011;6214;48.012;7.862;2022-07-29T13:35:19;6.00;;;2.70;;
12302;SDS011;6214;48.012;7.862;2022-07-29T13:37:46;5.30;;;2.25;;
12302;SDS011;6214;48.012;7.862;2022-07-29T13:40:17;6.03;;;2.60;;
12302;SDS011;6214;48.012;7.862;2022-07-29T13:42:44;4.80;;;2.40;;
12302;SDS011;6214;48.012;7.862;2022-07-29T13:45:12;5.60;;;2.42;;
12302;SDS011;6214;48.012;7.862;2022-07-29T13:47:39;4.40;;;2.20;;
12302;SDS011;6214;48.012;7.862;2022-07-29T13:50:14;8.65;;;2.90;;
12302;SDS011;6214;48.012;7.862;2022-07-29T13:52:41;5.55;;;2.20;;
12302;SDS011;6214;48.012;7.862;2022-07-29T13:55:08;4.30;;;2.00;;
12302;SDS011;6214;48.012;7.862;2022-07-29T13:57:35;6.47;;;2.50;;
12302;SDS011;6214;48.012;7.862;2022-07-29T14:00:02;7.57;;;2.20;;
12302;SDS011;6214;48.012;7.862;2022-07-29T14:02:29;4.90;;;2.30;;
12302;SDS011;6214;48.012;7.862;2022-07-29T14:04:56;4.65;;;2.30;;
12302;SDS011;6214;48.012;7.862;2022-07-29T14:07:23;4.10;;;2.13;;
12302;SDS011;6214;48.012;7.862;2022-07-29T14:09:50;6.20;;;2.30;;
12302;SDS011;6214;48.012;7.862;2022-07-29T14:12:17;5.17;;;2.40;;
12302;SDS011;6214;48.012;7.862;2022-07-29T14:14:45;5.00;;;2.50;;
12302;SDS011;6214;48.012;7.862;2022-07-29T14:17:12;6.20;;;2.58;;
12302;SDS011;6214;48.012;7.862;2022-07-29T14:19:40;6.53;;;2.40;;
12302;SDS011;6214;48.012;7.862;2022-07-29T14:22:07;4.85;;;2.50;;
12302;SDS011;6214;48.012;7.862;2022-07-29T14:24:36;5.50;;;2.30;;
12302;SDS011;6214;48.012;7.862;2022-07-29T14:27:07;5.77;;;2.47;;
12302;SDS011;6214;48.012;7.862;2022-07-29T14:29:34;6.03;;;2.38;;
12302;SDS011;6214;48.012;7.862;2022-07-29T14:32:06;4.73;;;1.90;;
12302;SDS011;6214;48.012;7.862;2022-07-29T14:34:35;5.82;;;2.28;;
12302;SDS011;6214;48.012;7.862;2022-07-29T14:37:03;6.50;;;2.30;;
12302;SDS011;6214;48.012;7.862;2022-07-29T14:39:40;4.88;;;2.10;;
12302;SDS011;6214;48.012;7.862;2022-07-29T14:42:09;4.50;;;2.10;;
12302;SDS011;6214;48.012;7.862;2022-07-29T14:44:38;4.53;;;2.00;;
12302;SDS011;6214;48.012;7.862;2022-07-29T14:47:06;4.85;;;2.20;;
12302;SDS011;6214;48.012;7.862;2022-07-29T14:49:34;5.07;;;2.20;;
12302;SDS011;6214;48.012;7.862;2022-07-29T14:52:01;6.38;;;2.00;;
12302;SDS011;6214;48.012;7.862;2022-07-29T14:54:28;5.80;;;2.20;;
12302;SDS011;6214;48.012;7.862;2022-07-29T14:56:55;7.13;;;2.15;;
12302;SDS011;6214;48.012;7.862;2022-07-29T14:59:24;5.85;;;2.10;;
12302;SDS011;6214;48.012;7.862;2022-07-29T15:01:51;4.13;;;2.10;;
12302;SDS011;6214;48.012;7.862;2022-07-29T15:04:18;5.00;;;2.00;;
12302;SDS011;6214;48.012;7.862;2022-07-29T15:06:45;5.90;;;1.90;;
12302;SDS011;6214;48.012;7.862;2022-07-29T15:09:12;5.60;;;1.80;;
12302;SDS011;6214;48.012;7.862;2022-07-29T15:11:39;4.82;;;2.00;;
12302;SDS011;6214;48.012;7.862;2022-07-29T15:14:06;4.30;;;1.90;;
12302;SDS011;6214;48.012;7.862;2022-07-29T15:16:35;7.33;;;2.13;;
12302;SDS011;6214;48.012;7.862;2022-07-29T15:19:04;4.72;;;1.80;;
12302;SDS011;6214;48.012;7.862;2022-07-29T15:21:31;6.30;;;1.90;;
12302;SDS011;6214;48.012;7.862;2022-07-29T15:23:58;6.07;;;1.90;;
12302;SDS011;6214;48.012;7.862;2022-07-29T15:26:25;4.78;;;1.83;;
12302;SDS011;6214;48.012;7.862;2022-07-29T15:28:52;5.40;;;1.58;;
12302;SDS011;6214;48.012;7.862;2022-07-29T15:31:19;4.70;;;1.80;;
12302;SDS011;6214;48.012;7.862;2022-07-29T15:33:46;5.77;;;2.33;;
12302;SDS011;6214;48.012;7.862;2022-07-29T15:36:13;6.22;;;2.45;;
12302;SDS011;6214;48.012;7.862;2022-07-29T15:39:00;5.13;;;1.75;;
12302;SDS011;6214;48.012;7.862;2022-07-29T15:41:27;4.90;;;1.80;;
12302;SDS011;6214;48.012;7.862;2022-07-29T15:43:54;4.90;;;1.90;;
12302;SDS011;6214;48.012;7.862;2022-07-29T15:46:22;5.32;;;1.80;;
12302;SDS011;6214;48.012;7.862;2022-07-29T15:49:08;4.22;;;1.70;;
12302;SDS011;6214;48.012;7.862;2022-07-29T15:51:35;4.73;;;1.80;;
12302;SDS011;6214;48.012;7.862;2022-07-29T15:54:02;5.57;;;1.90;;
12302;SDS011;6214;48.012;7.862;2022-07-29T15:56:30;4.70;;;1.80;;
12302;SDS011;6214;48.012;7.862;2022-07-29T15:58:57;5.50;;;1.80;;
12302;SDS011;6214;48.012;7.862;2022-07-29T16:01:26;4.60;;;1.60;;
12302;SDS011;6214;48.012;7.862;2022-07-29T16:03:53;5.13;;;1.80;;
12302;SDS011;6214;48.012;7.862;2022-07-29T16:06:20;4.10;;;1.60;;
12302;SDS011;6214;48.012;7.862;2022-07-29T16:08:47;4.80;;;1.80;;
12302;SDS011;6214;48.012;7.862;2022-07-29T16:11:14;4.93;;;1.90;;
12302;SDS011;6214;48.012;7.862;2022-07-29T16:13:41;5.20;;;1.80;;
12302;SDS011;6214;48.012;7.862;2022-07-29T16:16:08;5.00;;;1.67;;